Latest Coastal Weather Observations for Centre Island

IDD60701

Issued at 1:11 am CST Thursday 25 May 2017 (issued every 10 minutes, with the page automatically refreshed every 10 minutes)

About coastal observations | Map of coastal stations | Coastal observations for NT | Marine services | Other Formats
Station Details ID: 014703 Name: CENTRE ISLAND Lat: -15.74 Lon: 136.82 Height: 12.2 m
Data from the previous 72 hours. | See also: Recent months at Centre Island
Date/Time
CST
Temp
°C
Wind Pressure Rain since
9am
mm
Weather Cloud Vis
km
Sea
Height
m
Swell
Dir  Spd
kts
Gust
kts
hPa Trend Height
m
Period
s
Dir
25/01:00am 25.7 ESE 8 9 1014.0 - 0.0 - - - - - - -
25/12:30am 25.9 ESE 9 10 1014.2 - 0.0 - - - - - - -
25/12:00am 25.8 E 8 10 1014.4 - 0.0 - - - - - - -
 
Date/Time
CST
Temp
°C
Wind Pressure Rain since
9am
mm
Weather Cloud Vis
km
Sea
Height
m
Swell
Dir  Spd
kts
Gust
kts
hPa Trend Height
m
Period
s
Dir
24/11:30pm 25.9 E 9 10 1014.7 - 0.0 - - - - - - -
24/11:00pm 26.0 E 10 11 1015.0 - 0.0 - - - - - - -
24/10:30pm 26.1 E 10 12 1015.0 - 0.0 - - - - - - -
24/10:00pm 26.1 E 10 11 1014.8 - 0.0 - - - - - - -
24/09:30pm 26.3 E 10 12 1014.9 - 0.0 - - - - - - -
24/09:00pm 26.5 ESE 11 13 1014.8 - 0.0 - - - - - - -
24/08:30pm 26.6 E 11 13 1014.8 - 0.0 - - - - - - -
24/08:00pm 26.7 ESE 12 14 1014.5 - 0.0 - - - - - - -
24/07:30pm 26.8 ESE 11 14 1014.0 - 0.0 - - - - - - -
24/07:00pm 27.0 ESE 12 14 1013.7 - 0.0 - - - - - - -
24/06:30pm 27.2 E 12 14 1013.3 - 0.0 - - - - - - -
24/06:00pm 27.4 E 13 15 1012.8 - 0.0 - - - - - - -
24/05:30pm 28.0 E 12 15 1012.6 - 0.0 - - - - - - -
24/05:00pm 28.7 E 12 14 1012.4 - 0.0 - - - - - - -
24/04:30pm 29.2 E 12 15 1012.2 - 0.0 - - - - - - -
24/04:00pm 29.6 E 11 13 1012.3 - 0.0 - - - - - - -
24/03:30pm 29.9 E 13 16 1012.4 - 0.0 - - - - - - -
24/03:00pm 30.0 E 13 17 1012.4 - 0.0 - - - - - - -
24/02:30pm 30.3 E 14 16 1012.6 - 0.0 - - - - - - -
24/02:00pm 30.0 E 15 18 1012.9 - 0.0 - - - - - - -
24/01:30pm 29.7 ESE 15 18 1013.2 - 0.0 - - - - - - -
24/01:00pm 29.8 ESE 15 18 1013.6 - 0.0 - - - - - - -
24/12:30pm 29.6 ESE 15 18 1014.1 - 0.0 - - - - - - -
24/12:00pm 29.5 ESE 16 18 1014.4 - 0.0 - - - - - - -
24/11:30am 29.6 ESE 15 17 1014.7 - 0.0 - - - - - - -
24/11:00am 29.0 ESE 14 16 1015.0 - 0.0 - - - - - - -
24/10:30am 28.5 ESE 13 15 1015.2 - 0.0 - - - - - - -
24/10:00am 27.6 ESE 14 16 1015.2 - 0.0 - - - - - - -
24/09:30am 27.0 SE 13 15 1015.2 - 0.0 - - - - - - -
24/09:00am 26.6 SE 13 15 1015.1 - 0.2 - - - - - - -
24/08:30am 25.5 SSE 10 13 1014.8 - 0.2 - - - - - - -
24/08:00am 24.7 SSE 10 11 1014.2 - 0.2 - - - - - - -
24/07:30am 24.1 SSE 11 12 1013.8 - 0.2 - - - - - - -
24/07:00am 23.8 SSE 11 13 1013.6 - 0.2 - - - - - - -
24/06:30am 23.3 SSE 9 11 1013.2 - 0.2 - - - - - - -
24/06:00am 23.3 SSE 9 10 1013.0 - 0.2 - - - - - - -
24/05:30am 23.5 SSE 9 11 1012.9 - 0.2 - - - - - - -
24/05:00am 23.7 SSE 9 10 1012.8 - 0.2 - - - - - - -
24/04:30am 24.2 SSE 8 10 1012.7 - 0.2 - - - - - - -
24/04:00am 24.2 SSE 9 10 1012.5 - 0.2 - - - - - - -
24/03:30am 24.3 SSE 9 10 1012.4 - 0.2 - - - - - - -
24/03:00am 24.5 SSE 9 10 1012.3 - 0.2 - - - - - - -
24/02:30am 25.0 SSE 9 10 1012.5 - 0.2 - - - - - - -
24/02:00am 25.2 SSE 9 10 1012.7 - 0.2 - - - - - - -
24/01:30am 26.0 SE 9 11 1013.0 - 0.2 - - - - - - -
24/01:00am 26.0 ESE 10 11 1013.2 - 0.2 - - - - - - -
24/12:30am 25.8 ESE 8 11 1013.4 - 0.2 - - - - - - -
24/12:00am 25.9 ESE 9 11 1013.8 - 0.2 - - - - - - -
 
Date/Time
CST
Temp
°C
Wind Pressure Rain since
9am
mm
Weather Cloud Vis
km
Sea
Height
m
Swell
Dir  Spd
kts
Gust
kts
hPa Trend Height
m
Period
s
Dir
23/11:30pm 26.0 E 10 11 1014.0 - 0.2 - - - - - - -
23/11:00pm 26.0 E 9 11 1014.1 - 0.2 - - - - - - -
23/10:30pm 26.0 E 9 11 1014.3 - 0.2 - - - - - - -
23/10:00pm 26.0 E 8 10 1014.3 - 0.2 - - - - - - -
23/09:30pm 25.9 ENE 7 9 1014.2 - 0.2 - - - - - - -
23/09:00pm 25.9 ENE 7 8 1014.0 - 0.2 - - - - - - -
23/08:30pm 26.0 ENE 7 8 1013.8 - 0.2 - - - - - - -
23/08:00pm 26.1 ENE 7 8 1013.4 - 0.2 - - - - - - -
23/07:30pm 26.3 ENE 7 8 1013.1 - 0.2 - - - - - - -
23/07:00pm 26.8 NE 8 10 1012.8 - 0.2 - - - - - - -
23/06:30pm 27.1 NE 8 9 1012.4 - 0.2 - - - - - - -
23/06:00pm 27.5 ENE 10 13 1012.0 - 0.2 - - - - - - -
23/05:30pm 28.1 ENE 12 15 1011.9 - 0.2 - - - - - - -
23/05:00pm 29.0 E 13 15 1011.6 - 0.2 - - - - - - -
23/04:30pm 29.6 E 14 17 1011.4 - 0.2 - - - - - - -
23/04:00pm 30.2 E 14 18 1011.5 - 0.2 - - - - - - -
23/03:30pm 30.9 E 13 15 1011.6 - 0.2 - - - - - - -
23/03:00pm 31.1 E 15 18 1011.7 - 0.2 - - - - - - -
23/02:30pm 31.4 E 12 14 1011.9 - 0.2 - - - - - - -
23/02:00pm 31.5 ESE 14 17 1012.1 - 0.2 - - - - - - -
23/01:30pm 31.4 E 15 19 1012.5 - 0.2 - - - - - - -
23/01:00pm 31.5 ESE 14 17 1013.1 - 0.2 - - - - - - -
23/12:30pm 30.8 ESE 14 16 1013.6 - 0.2 - - - - - - -
23/12:00pm 30.8 E 14 16 1014.1 - 0.2 - - - - - - -
23/11:30am 30.3 ESE 12 14 1014.5 - 0.2 - - - - - - -
23/11:00am 29.5 ESE 9 11 1014.8 - 0.2 - - - - - - -
23/10:30am 27.9 ESE 6 8 1015.0 - 0.2 - - - - - - -
23/10:00am 27.6 SE 7 9 1015.0 - 0.0 - - - - - - -
23/09:30am 27.0 SE 8 10 1014.9 - 0.0 - - - - - - -
23/09:00am 26.5 SSE 7 8 1014.9 - 0.0 - - - - - - -
23/08:30am 25.8 SSE 9 11 1014.6 - 0.0 - - - - - - -
23/08:00am 24.7 S 8 10 1014.5 - 0.0 - - - - - - -
23/07:30am 23.8 S 9 15 1014.3 - 0.0 - - - - - - -
23/07:00am 23.4 SSW 12 16 1014.1 - 0.0 - - - - - - -
23/06:30am 23.6 SSW 5 8 1013.7 - 0.0 - - - - - - -
23/06:00am 24.0 S 7 10 1013.5 - 0.0 - - - - - - -
23/05:30am 24.1 SSW 8 10 1013.3 - 0.0 - - - - - - -
23/05:00am 24.6 S 5 7 1013.0 - 0.0 - - - - - - -
23/04:30am 24.9 S 5 6 1012.9 - 0.0 - - - - - - -
23/04:00am 25.2 SSE 4 5 1012.7 - 0.0 - - - - - - -
23/03:30am 25.4 ESE 7 8 1012.7 - 0.0 - - - - - - -
23/03:00am 25.3 ESE 7 9 1012.8 - 0.0 - - - - - - -
23/02:30am 25.4 E 6 7 1012.9 - 0.0 - - - - - - -
23/01:30am 25.6 ESE 7 8 1013.3 - 0.0 - - - - - - -
23/01:00am 25.7 E 8 9 1013.5 - 0.0 - - - - - - -
23/12:30am 25.6 E 7 8 1013.7 - 0.0 - - - - - - -
23/12:00am 25.7 E 7 8 1013.8 - 0.0 - - - - - - -
 
Date/Time
CST
Temp
°C
Wind Pressure Rain since
9am
mm
Weather Cloud Vis
km
Sea
Height
m
Swell
Dir  Spd
kts
Gust
kts
hPa Trend Height
m
Period
s
Dir
22/11:30pm 25.8 E 6 8 1014.1 - 0.0 - - - - - - -
22/11:00pm 26.0 ESE 6 7 1014.2 - 0.0 - - - - - - -
22/10:30pm 26.2 E 7 8 1014.3 - 0.0 - - - - - - -
22/10:00pm 26.3 ENE 7 8 1014.3 - 0.0 - - - - - - -
22/09:30pm 26.4 E 8 10 1014.2 - 0.0 - - - - - - -
22/09:00pm 26.3 ENE 8 10 1014.0 - 0.0 - - - - - - -
22/08:30pm 26.4 ENE 8 10 1014.0 - 0.0 - - - - - - -
22/08:00pm 26.4 ENE 8 9 1013.7 - 0.0 - - - - - - -
22/07:30pm 26.6 ENE 9 10 1013.3 - 0.0 - - - - - - -
22/07:00pm 26.8 ENE 10 13 1013.0 - 0.0 - - - - - - -
22/06:30pm 27.2 NE 9 11 1012.6 - 0.0 - - - - - - -
22/06:00pm 27.5 ENE 10 12 1012.4 - 0.0 - - - - - - -
22/05:30pm 28.0 ENE 9 11 1012.1 - 0.0 - - - - - - -
22/05:00pm 28.7 E 12 14 1011.9 - 0.0 - - - - - - -
22/04:30pm 29.1 E 12 14 1011.7 - 0.0 - - - - - - -
22/04:00pm 30.2 E 11 13 1011.6 - 0.0 - - - - - - -
22/03:30pm 30.1 E 10 12 1011.6 - 0.0 - - - - - - -
22/03:00pm 29.7 ESE 10 13 1011.7 - 0.0 - - - - - - -
22/02:30pm 29.6 ESE 11 13 1011.9 - 0.0 - - - - - - -
22/02:00pm 29.7 SE 12 14 1012.3 - 0.0 - - - - - - -
22/01:30pm 29.7 SE 12 14 1012.7 - 0.0 - - - - - - -
22/01:00pm 29.5 SE 13 15 1013.0 - 0.0 - - - - - - -
22/12:30pm 29.3 ESE 14 15 1013.4 - 0.0 - - - - - - -
22/12:00pm 29.4 ESE 14 16 1013.7 - 0.0 - - - - - - -
22/11:30am 29.4 ESE 15 17 1014.2 - 0.0 - - - - - - -
22/11:00am 28.9 SE 14 16 1014.5 - 0.0 - - - - - - -
22/10:30am 28.8 SE 13 14 1014.6 - 0.0 - - - - - - -
22/10:00am 27.9 SE 8 9 1014.7 - 0.0 - - - - - - -
22/09:30am 27.3 SE 8 10 1014.7 - 0.0 - - - - - - -
22/09:00am 26.8 SSE 7 8 1014.6 - 0.0 - - - - - - -
22/08:30am 26.3 SSE 6 8 1014.3 - 0.0 - - - - - - -
22/08:00am 26.0 SSE 7 8 1014.1 - 0.0 - - - - - - -
22/07:30am 25.2 SSE 7 7 1013.8 - 0.0 - - - - - - -
22/07:00am 24.5 SSE 7 8 1013.4 - 0.0 - - - - - - -
22/06:30am 24.4 SSE 8 10 1012.9 - 0.0 - - - - - - -
22/06:00am 24.4 SSE 8 9 1012.7 - 0.0 - - - - - - -
22/05:30am 24.6 SSE 9 10 1012.4 - 0.0 - - - - - - -
22/05:00am 24.7 SSE 9 10 1012.2 - 0.0 - - - - - - -
22/04:30am 25.1 SSE 7 8 1012.0 - 0.0 - - - - - - -
22/04:00am 25.5 SE 7 8 1011.8 - 0.0 - - - - - - -
22/03:30am 25.6 ESE 8 9 1011.6 - 0.0 - - - - - - -
22/03:00am 25.6 ESE 7 8 1011.6 - 0.0 - - - - - - -
22/02:30am 25.6 ESE 7 9 1011.6 - 0.0 - - - - - - -
22/02:00am 25.6 E 8 9 1011.9 - 0.0 - - - - - - -
22/01:30am 25.8 E 9 10 1012.0 - 0.0 - - - - - - -

Other Formats:

Comma delimited format used in spreadsheet applications
http://www.bom.gov.au/fwo/IDD60701/IDD60701.94248.axf

JavaScript Object Notation format (JSON) in row-major order
http://www.bom.gov.au/fwo/IDD60701/IDD60701.94248.json